sensor_id;sensor_type;location;lat;lon;timestamp;pressure;altitude;pressure_sealevel;temperature;humidity
39487;BME280;25173;50.430;18.926;2023-01-29T00:01:18;99135.81;;;2.38;61.12
39487;BME280;25173;50.430;18.926;2023-01-29T00:04:19;99134.91;;;2.24;60.30
39487;BME280;25173;50.430;18.926;2023-01-29T00:07:20;99136.78;;;2.24;60.60
39487;BME280;25173;50.430;18.926;2023-01-29T00:10:21;99139.31;;;2.32;60.25
39487;BME280;25173;50.430;18.926;2023-01-29T00:13:21;99133.94;;;2.32;60.18
39487;BME280;25173;50.430;18.926;2023-01-29T00:16:22;99147.38;;;2.32;60.14
39487;BME280;25173;50.430;18.926;2023-01-29T00:19:23;99144.84;;;2.24;60.39
39487;BME280;25173;50.430;18.926;2023-01-29T00:22:23;99147.66;;;2.16;60.86
39487;BME280;25173;50.430;18.926;2023-01-29T00:25:24;99154.31;;;1.92;61.44
39487;BME280;25173;50.430;18.926;2023-01-29T00:28:25;99154.66;;;1.82;61.54
39487;BME280;25173;50.430;18.926;2023-01-29T00:31:26;99148.94;;;1.71;61.85
39487;BME280;25173;50.430;18.926;2023-01-29T00:34:27;99155.38;;;1.70;61.91
39487;BME280;25173;50.430;18.926;2023-01-29T00:37:28;99148.59;;;1.74;61.99
39487;BME280;25173;50.430;18.926;2023-01-29T00:40:29;99150.84;;;1.70;61.92
39487;BME280;25173;50.430;18.926;2023-01-29T00:43:49;99161.31;;;1.65;61.76
39487;BME280;25173;50.430;18.926;2023-01-29T00:47:08;99167.56;;;1.51;61.87
39487;BME280;25173;50.430;18.926;2023-01-29T00:50:29;99165.53;;;1.32;61.83
39487;BME280;25173;50.430;18.926;2023-01-29T00:53:30;99164.88;;;1.30;61.96
39487;BME280;25173;50.430;18.926;2023-01-29T00:56:32;99168.75;;;1.27;62.14
39487;BME280;25173;50.430;18.926;2023-01-29T00:59:33;99176.63;;;1.29;61.82
39487;BME280;25173;50.430;18.926;2023-01-29T01:02:34;99176.38;;;1.24;61.94
39487;BME280;25173;50.430;18.926;2023-01-29T01:06:05;99177.81;;;1.26;61.93
39487;BME280;25173;50.430;18.926;2023-01-29T01:09:07;99163.47;;;1.34;61.83
39487;BME280;25173;50.430;18.926;2023-01-29T01:12:27;99164.34;;;1.41;61.77
39487;BME280;25173;50.430;18.926;2023-01-29T01:15:38;99154.03;;;1.38;61.73
39487;BME280;25173;50.430;18.926;2023-01-29T01:18:40;99157.06;;;1.35;61.70
39487;BME280;25173;50.430;18.926;2023-01-29T01:21:41;99151.22;;;1.46;61.82
39487;BME280;25173;50.430;18.926;2023-01-29T01:24:45;99142.75;;;1.49;61.51
39487;BME280;25173;50.430;18.926;2023-01-29T01:27:45;99158.69;;;1.50;61.06
39487;BME280;25173;50.430;18.926;2023-01-29T01:30:46;99150.56;;;1.44;61.02
39487;BME280;25173;50.430;18.926;2023-01-29T01:33:47;99157.78;;;1.43;61.04
39487;BME280;25173;50.430;18.926;2023-01-29T01:36:47;99145.13;;;1.37;60.59
39487;BME280;25173;50.430;18.926;2023-01-29T01:39:48;99138.69;;;1.32;60.73
39487;BME280;25173;50.430;18.926;2023-01-29T01:42:52;99129.03;;;1.37;60.58
39487;BME280;25173;50.430;18.926;2023-01-29T01:45:53;99129.69;;;1.39;60.07
39487;BME280;25173;50.430;18.926;2023-01-29T01:52:09;99125.41;;;1.45;59.62
39487;BME280;25173;50.430;18.926;2023-01-29T01:55:13;99113.19;;;1.42;59.01
39487;BME280;25173;50.430;18.926;2023-01-29T01:58:27;99127.25;;;1.44;58.59
39487;BME280;25173;50.430;18.926;2023-01-29T02:01:29;99122.06;;;1.43;58.29
39487;BME280;25173;50.430;18.926;2023-01-29T02:04:30;99113.38;;;1.41;58.57
39487;BME280;25173;50.430;18.926;2023-01-29T02:07:50;99124.38;;;1.46;58.29
39487;BME280;25173;50.430;18.926;2023-01-29T02:11:09;99126.41;;;1.44;57.33
39487;BME280;25173;50.430;18.926;2023-01-29T02:14:10;99126.78;;;1.41;57.59
39487;BME280;25173;50.430;18.926;2023-01-29T02:17:13;99113.66;;;1.46;57.59
39487;BME280;25173;50.430;18.926;2023-01-29T02:20:22;99111.25;;;1.58;57.85
39487;BME280;25173;50.430;18.926;2023-01-29T02:23:45;99116.50;;;1.66;56.87
39487;BME280;25173;50.430;18.926;2023-01-29T02:30:37;99120.34;;;1.56;56.21
39487;BME280;25173;50.430;18.926;2023-01-29T02:37:04;99121.81;;;1.38;56.26
39487;BME280;25173;50.430;18.926;2023-01-29T02:43:44;99128.97;;;1.52;55.50
39487;BME280;25173;50.430;18.926;2023-01-29T02:47:06;99130.63;;;1.53;55.82
39487;BME280;25173;50.430;18.926;2023-01-29T02:50:19;99137.91;;;1.59;55.81
39487;BME280;25173;50.430;18.926;2023-01-29T02:53:22;99136.50;;;1.63;56.00
39487;BME280;25173;50.430;18.926;2023-01-29T02:56:35;99136.78;;;1.68;55.46
39487;BME280;25173;50.430;18.926;2023-01-29T02:59:41;99131.53;;;1.60;55.33
39487;BME280;25173;50.430;18.926;2023-01-29T03:03:11;99139.53;;;1.53;54.83
39487;BME280;25173;50.430;18.926;2023-01-29T03:12:29;99157.47;;;1.74;55.39
39487;BME280;25173;50.430;18.926;2023-01-29T03:15:41;99151.13;;;1.82;55.34
39487;BME280;25173;50.430;18.926;2023-01-29T03:19:17;99155.28;;;1.84;53.90
39487;BME280;25173;50.430;18.926;2023-01-29T03:22:19;99152.34;;;1.58;54.47
39487;BME280;25173;50.430;18.926;2023-01-29T03:25:25;99148.28;;;1.62;54.92
39487;BME280;25173;50.430;18.926;2023-01-29T03:28:46;99150.31;;;1.60;54.57
39487;BME280;25173;50.430;18.926;2023-01-29T03:32:16;99144.91;;;1.53;54.23
39487;BME280;25173;50.430;18.926;2023-01-29T03:35:21;99136.84;;;1.53;55.02
39487;BME280;25173;50.430;18.926;2023-01-29T03:38:33;99131.97;;;1.64;55.23
39487;BME280;25173;50.430;18.926;2023-01-29T03:41:42;99130.84;;;1.79;55.03
39487;BME280;25173;50.430;18.926;2023-01-29T03:45:02;99123.31;;;1.89;54.43
39487;BME280;25173;50.430;18.926;2023-01-29T03:51:40;99116.16;;;2.03;54.53
39487;BME280;25173;50.430;18.926;2023-01-29T03:54:58;99112.78;;;2.22;54.49
39487;BME280;25173;50.430;18.926;2023-01-29T03:58:08;99108.53;;;2.34;54.34
39487;BME280;25173;50.430;18.926;2023-01-29T04:01:27;99105.94;;;2.54;54.00
39487;BME280;25173;50.430;18.926;2023-01-29T04:04:33;99112.16;;;2.61;53.84
39487;BME280;25173;50.430;18.926;2023-01-29T04:07:39;99104.38;;;2.73;53.78
39487;BME280;25173;50.430;18.926;2023-01-29T04:10:43;99098.00;;;2.81;53.79
39487;BME280;25173;50.430;18.926;2023-01-29T04:13:45;99096.53;;;2.85;53.69
39487;BME280;25173;50.430;18.926;2023-01-29T04:16:52;99097.41;;;2.92;53.81
39487;BME280;25173;50.430;18.926;2023-01-29T04:20:10;99092.66;;;3.00;53.51
39487;BME280;25173;50.430;18.926;2023-01-29T04:23:23;99082.31;;;3.04;53.24
39487;BME280;25173;50.430;18.926;2023-01-29T04:36:40;99067.66;;;3.13;52.44
39487;BME280;25173;50.430;18.926;2023-01-29T04:52:54;99049.44;;;3.08;53.18
39487;BME280;25173;50.430;18.926;2023-01-29T04:59:07;99047.94;;;2.99;53.25
39487;BME280;25173;50.430;18.926;2023-01-29T05:02:10;99050.19;;;2.89;53.25
39487;BME280;25173;50.430;18.926;2023-01-29T05:05:13;99048.94;;;2.79;53.23
39487;BME280;25173;50.430;18.926;2023-01-29T05:08:20;99049.28;;;2.62;53.64
39487;BME280;25173;50.430;18.926;2023-01-29T05:11:23;99046.38;;;2.57;54.10
39487;BME280;25173;50.430;18.926;2023-01-29T05:14:27;99042.69;;;2.58;54.06
39487;BME280;25173;50.430;18.926;2023-01-29T05:17:30;99042.25;;;2.61;54.38
39487;BME280;25173;50.430;18.926;2023-01-29T05:20:32;99043.09;;;2.68;54.58
39487;BME280;25173;50.430;18.926;2023-01-29T05:23:34;99039.00;;;2.72;54.32
39487;BME280;25173;50.430;18.926;2023-01-29T05:26:34;99048.94;;;2.79;54.33
39487;BME280;25173;50.430;18.926;2023-01-29T05:29:54;99051.03;;;2.90;54.34
39487;BME280;25173;50.430;18.926;2023-01-29T05:32:55;99037.38;;;2.91;54.17
39487;BME280;25173;50.430;18.926;2023-01-29T05:35:58;99045.25;;;2.93;54.33
39487;BME280;25173;50.430;18.926;2023-01-29T05:38:59;99040.09;;;2.98;54.55
39487;BME280;25173;50.430;18.926;2023-01-29T05:42:01;99047.97;;;3.06;54.40
39487;BME280;25173;50.430;18.926;2023-01-29T05:45:02;99043.59;;;2.98;54.38
39487;BME280;25173;50.430;18.926;2023-01-29T05:48:02;99047.94;;;2.93;54.44
39487;BME280;25173;50.430;18.926;2023-01-29T05:51:03;99053.31;;;2.93;54.32
39487;BME280;25173;50.430;18.926;2023-01-29T05:54:04;99053.31;;;2.93;54.43
39487;BME280;25173;50.430;18.926;2023-01-29T05:57:05;99056.41;;;2.90;54.40
39487;BME280;25173;50.430;18.926;2023-01-29T06:00:07;99060.16;;;2.89;54.36
39487;BME280;25173;50.430;18.926;2023-01-29T06:03:12;99055.16;;;2.86;54.49
39487;BME280;25173;50.430;18.926;2023-01-29T06:06:13;99056.59;;;2.82;54.51
39487;BME280;25173;50.430;18.926;2023-01-29T06:09:14;99054.13;;;2.80;54.71
39487;BME280;25173;50.430;18.926;2023-01-29T06:12:15;99048.75;;;2.80;54.82
39487;BME280;25173;50.430;18.926;2023-01-29T06:15:15;99056.38;;;2.83;54.87
39487;BME280;25173;50.430;18.926;2023-01-29T06:18:16;99059.91;;;2.77;55.27
39487;BME280;25173;50.430;18.926;2023-01-29T06:21:17;99064.00;;;2.66;55.54
39487;BME280;25173;50.430;18.926;2023-01-29T06:24:17;99065.22;;;2.57;56.14
39487;BME280;25173;50.430;18.926;2023-01-29T06:27:18;99069.28;;;2.47;56.62
39487;BME280;25173;50.430;18.926;2023-01-29T06:30:19;99073.59;;;2.41;56.95
39487;BME280;25173;50.430;18.926;2023-01-29T06:33:19;99074.16;;;2.30;57.46
39487;BME280;25173;50.430;18.926;2023-01-29T06:36:20;99074.16;;;2.30;57.94
39487;BME280;25173;50.430;18.926;2023-01-29T06:39:20;99068.78;;;2.30;58.00
39487;BME280;25173;50.430;18.926;2023-01-29T06:42:21;99072.28;;;2.24;58.10
39487;BME280;25173;50.430;18.926;2023-01-29T06:45:27;99070.59;;;2.23;59.70
39487;BME280;25173;50.430;18.926;2023-01-29T06:48:27;99077.19;;;2.14;58.76
39487;BME280;25173;50.430;18.926;2023-01-29T06:51:28;99081.47;;;2.08;58.79
39487;BME280;25173;50.430;18.926;2023-01-29T06:54:28;99078.59;;;2.10;59.11
39487;BME280;25173;50.430;18.926;2023-01-29T06:57:29;99071.78;;;2.07;59.39
39487;BME280;25173;50.430;18.926;2023-01-29T07:00:30;99079.44;;;2.10;59.54
39487;BME280;25173;50.430;18.926;2023-01-29T07:03:31;99086.28;;;2.13;59.79
39487;BME280;25173;50.430;18.926;2023-01-29T07:06:32;99080.03;;;2.06;59.51
39487;BME280;25173;50.430;18.926;2023-01-29T07:09:33;99078.03;;;1.86;59.75
39487;BME280;25173;50.430;18.926;2023-01-29T07:12:34;99073.63;;;1.79;59.74
39487;BME280;25173;50.430;18.926;2023-01-29T07:15:34;99085.75;;;1.68;60.12
39487;BME280;25173;50.430;18.926;2023-01-29T07:18:35;99088.81;;;1.65;60.49
39487;BME280;25173;50.430;18.926;2023-01-29T07:21:36;99085.19;;;1.51;60.72
39487;BME280;25173;50.430;18.926;2023-01-29T07:24:37;99087.38;;;1.41;61.24
39487;BME280;25173;50.430;18.926;2023-01-29T07:27:37;99090.00;;;1.35;61.35
39487;BME280;25173;50.430;18.926;2023-01-29T07:30:38;99095.63;;;1.40;61.32
39487;BME280;25173;50.430;18.926;2023-01-29T07:33:39;99096.06;;;1.43;61.43
39487;BME280;25173;50.430;18.926;2023-01-29T07:36:39;99098.56;;;1.45;61.38
39487;BME280;25173;50.430;18.926;2023-01-29T07:39:40;99102.78;;;1.54;61.25
39487;BME280;25173;50.430;18.926;2023-01-29T07:42:40;99098.66;;;1.58;61.17
39487;BME280;25173;50.430;18.926;2023-01-29T07:45:43;99112.09;;;1.58;61.12
39487;BME280;25173;50.430;18.926;2023-01-29T07:48:43;99114.00;;;1.64;61.07
39487;BME280;25173;50.430;18.926;2023-01-29T07:51:44;99127.22;;;1.66;60.85
39487;BME280;25173;50.430;18.926;2023-01-29T07:54:45;99130.31;;;1.63;60.75
39487;BME280;25173;50.430;18.926;2023-01-29T07:57:46;99125.50;;;1.58;60.80
39487;BME280;25173;50.430;18.926;2023-01-29T08:00:47;99146.63;;;1.61;60.90
39487;BME280;25173;50.430;18.926;2023-01-29T08:03:47;99130.44;;;1.54;60.19
39487;BME280;25173;50.430;18.926;2023-01-29T08:06:49;99125.91;;;1.55;60.58
39487;BME280;25173;50.430;18.926;2023-01-29T08:09:49;99129.44;;;1.55;60.24
39487;BME280;25173;50.430;18.926;2023-01-29T08:12:58;99119.38;;;1.64;60.08
39487;BME280;25173;50.430;18.926;2023-01-29T08:16:01;99127.28;;;1.72;60.09
39487;BME280;25173;50.430;18.926;2023-01-29T08:19:02;99125.28;;;1.81;59.66
39487;BME280;25173;50.430;18.926;2023-01-29T08:22:04;99131.59;;;1.94;59.86
39487;BME280;25173;50.430;18.926;2023-01-29T08:25:05;99142.63;;;2.00;59.46
39487;BME280;25173;50.430;18.926;2023-01-29T08:28:06;99141.19;;;2.04;59.34
39487;BME280;25173;50.430;18.926;2023-01-29T08:31:14;99144.69;;;2.04;59.56
39487;BME280;25173;50.430;18.926;2023-01-29T08:34:15;99144.75;;;2.11;59.31
39487;BME280;25173;50.430;18.926;2023-01-29T08:37:16;99143.28;;;2.08;59.43
39487;BME280;25173;50.430;18.926;2023-01-29T08:40:17;99148.50;;;2.16;59.46
39487;BME280;25173;50.430;18.926;2023-01-29T08:43:17;99148.16;;;2.26;59.39
39487;BME280;25173;50.430;18.926;2023-01-29T08:46:18;99142.47;;;2.42;59.46
39487;BME280;25173;50.430;18.926;2023-01-29T08:49:18;99146.69;;;2.51;58.82
39487;BME280;25173;50.430;18.926;2023-01-29T08:52:19;99132.59;;;2.49;58.56
39487;BME280;25173;50.430;18.926;2023-01-29T08:55:19;99130.28;;;2.46;58.32
39487;BME280;25173;50.430;18.926;2023-01-29T08:58:20;99119.94;;;2.43;58.08
39487;BME280;25173;50.430;18.926;2023-01-29T09:01:21;99110.41;;;2.41;57.18
39487;BME280;25173;50.430;18.926;2023-01-29T09:04:21;99100.56;;;2.54;56.44
39487;BME280;25173;50.430;18.926;2023-01-29T09:07:22;99095.03;;;2.69;56.08
39487;BME280;25173;50.430;18.926;2023-01-29T09:10:23;99095.88;;;2.69;55.53
39487;BME280;25173;50.430;18.926;2023-01-29T09:13:23;99103.94;;;2.69;54.72
39487;BME280;25173;50.430;18.926;2023-01-29T09:16:24;99110.28;;;2.55;53.97
39487;BME280;25173;50.430;18.926;2023-01-29T09:19:25;99096.59;;;2.44;53.67
39487;BME280;25173;50.430;18.926;2023-01-29T09:22:25;99098.06;;;2.53;54.58
39487;BME280;25173;50.430;18.926;2023-01-29T09:25:26;99107.38;;;2.50;54.15
39487;BME280;25173;50.430;18.926;2023-01-29T09:28:27;99109.19;;;2.43;54.50
39487;BME280;25173;50.430;18.926;2023-01-29T09:31:27;99115.81;;;2.47;54.94
39487;BME280;25173;50.430;18.926;2023-01-29T09:34:28;99117.94;;;2.52;54.87
39487;BME280;25173;50.430;18.926;2023-01-29T09:37:29;99111.91;;;2.50;54.87
39487;BME280;25173;50.430;18.926;2023-01-29T09:43:47;99120.22;;;2.55;54.62
39487;BME280;25173;50.430;18.926;2023-01-29T09:46:50;99101.03;;;2.64;55.13
39487;BME280;25173;50.430;18.926;2023-01-29T09:50:10;99091.34;;;2.83;54.65
39487;BME280;25173;50.430;18.926;2023-01-29T09:56:34;99086.09;;;2.55;53.41
39487;BME280;25173;50.430;18.926;2023-01-29T09:59:36;99069.72;;;2.50;53.52
39487;BME280;25173;50.430;18.926;2023-01-29T10:25:50;99021.69;;;3.01;50.94
39487;BME280;25173;50.430;18.926;2023-01-29T10:28:52;99010.94;;;3.28;52.40
39487;BME280;25173;50.430;18.926;2023-01-29T10:31:57;99004.75;;;3.47;52.19
39487;BME280;25173;50.430;18.926;2023-01-29T10:35:27;98998.28;;;3.68;51.28
39487;BME280;25173;50.430;18.926;2023-01-29T10:51:37;98970.75;;;3.53;51.89
39487;BME280;25173;50.430;18.926;2023-01-29T11:01:36;98958.63;;;4.01;51.60
39487;BME280;25173;50.430;18.926;2023-01-29T11:04:37;98944.72;;;4.04;50.57
39487;BME280;25173;50.430;18.926;2023-01-29T11:07:38;98933.38;;;3.89;50.21
39487;BME280;25173;50.430;18.926;2023-01-29T11:11:01;98931.75;;;3.75;49.49
39487;BME280;25173;50.430;18.926;2023-01-29T11:14:22;98933.47;;;3.63;48.91
39487;BME280;25173;50.430;18.926;2023-01-29T11:17:24;98919.78;;;3.51;50.96
39487;BME280;25173;50.430;18.926;2023-01-29T11:20:27;98921.44;;;3.52;50.98
39487;BME280;25173;50.430;18.926;2023-01-29T11:23:32;98927.88;;;3.44;50.51
39487;BME280;25173;50.430;18.926;2023-01-29T11:26:38;98928.13;;;3.23;50.44
39487;BME280;25173;50.430;18.926;2023-01-29T11:29:44;98927.69;;;3.13;50.37
39487;BME280;25173;50.430;18.926;2023-01-29T11:32:49;98932.25;;;2.86;50.88
39487;BME280;25173;50.430;18.926;2023-01-29T11:35:50;98920.66;;;2.72;51.19
39487;BME280;25173;50.430;18.926;2023-01-29T11:39:21;98928.53;;;2.87;50.89
39487;BME280;25173;50.430;18.926;2023-01-29T11:42:23;98916.53;;;3.09;51.62
39487;BME280;25173;50.430;18.926;2023-01-29T11:45:27;98911.13;;;3.36;51.04
39487;BME280;25173;50.430;18.926;2023-01-29T11:51:41;98922.69;;;3.63;50.73
39487;BME280;25173;50.430;18.926;2023-01-29T11:54:50;98915.19;;;3.71;50.96
39487;BME280;25173;50.430;18.926;2023-01-29T11:58:14;98917.63;;;3.86;50.24
39487;BME280;25173;50.430;18.926;2023-01-29T12:01:26;98906.84;;;3.86;50.15
39487;BME280;25173;50.430;18.926;2023-01-29T12:04:29;98906.97;;;4.11;50.61
39487;BME280;25173;50.430;18.926;2023-01-29T12:07:30;98900.41;;;4.32;50.33
39487;BME280;25173;50.430;18.926;2023-01-29T12:10:34;98895.03;;;4.32;49.53
39487;BME280;25173;50.430;18.926;2023-01-29T12:13:36;98899.31;;;4.46;49.70
39487;BME280;25173;50.430;18.926;2023-01-29T12:29:38;98884.13;;;5.07;48.86
39487;BME280;25173;50.430;18.926;2023-01-29T12:35:53;98875.47;;;4.43;48.49
39487;BME280;25173;50.430;18.926;2023-01-29T12:38:55;98870.59;;;4.26;49.14
39487;BME280;25173;50.430;18.926;2023-01-29T12:42:08;98860.69;;;4.20;48.62
39487;BME280;25173;50.430;18.926;2023-01-29T12:45:16;98861.56;;;4.14;49.17
39487;BME280;25173;50.430;18.926;2023-01-29T12:48:28;98855.56;;;4.06;48.86
39487;BME280;25173;50.430;18.926;2023-01-29T12:51:35;98868.97;;;4.19;49.67
39487;BME280;25173;50.430;18.926;2023-01-29T12:57:58;98859.28;;;4.11;48.71
39487;BME280;25173;50.430;18.926;2023-01-29T13:01:14;98853.72;;;4.06;49.50
39487;BME280;25173;50.430;18.926;2023-01-29T13:04:43;98847.69;;;4.04;49.44
39487;BME280;25173;50.430;18.926;2023-01-29T13:07:59;98837.47;;;4.19;49.51
39487;BME280;25173;50.430;18.926;2023-01-29T13:11:05;98833.84;;;4.32;49.76
39487;BME280;25173;50.430;18.926;2023-01-29T13:17:53;98843.34;;;4.03;49.63
39487;BME280;25173;50.430;18.926;2023-01-29T13:20:58;98840.06;;;3.95;50.12
39487;BME280;25173;50.430;18.926;2023-01-29T13:24:17;98836.78;;;3.86;49.87
39487;BME280;25173;50.430;18.926;2023-01-29T13:27:37;98827.47;;;3.88;50.62
39487;BME280;25173;50.430;18.926;2023-01-29T13:30:38;98832.47;;;4.16;50.73
39487;BME280;25173;50.430;18.926;2023-01-29T13:33:41;98811.78;;;4.42;50.11
39487;BME280;25173;50.430;18.926;2023-01-29T13:36:44;98824.41;;;4.48;49.82
39487;BME280;25173;50.430;18.926;2023-01-29T13:39:48;98802.72;;;4.61;50.21
39487;BME280;25173;50.430;18.926;2023-01-29T13:42:50;98795.56;;;4.73;49.65
39487;BME280;25173;50.430;18.926;2023-01-29T13:45:53;98789.28;;;4.79;49.67
39487;BME280;25173;50.430;18.926;2023-01-29T13:48:54;98787.50;;;4.91;49.70
39487;BME280;25173;50.430;18.926;2023-01-29T13:51:58;98795.78;;;4.96;49.58
39487;BME280;25173;50.430;18.926;2023-01-29T14:02:00;98795.31;;;4.99;48.63
39487;BME280;25173;50.430;18.926;2023-01-29T14:08:43;98787.00;;;5.01;49.16
39487;BME280;25173;50.430;18.926;2023-01-29T14:11:47;98790.06;;;5.04;49.26
39487;BME280;25173;50.430;18.926;2023-01-29T14:18:12;98779.69;;;4.83;49.05
39487;BME280;25173;50.430;18.926;2023-01-29T14:21:21;98790.28;;;4.85;49.37
39487;BME280;25173;50.430;18.926;2023-01-29T14:24:29;98780.56;;;4.59;49.12
39487;BME280;25173;50.430;18.926;2023-01-29T14:27:31;98795.63;;;4.42;49.60
39487;BME280;25173;50.430;18.926;2023-01-29T14:30:33;98794.06;;;4.27;49.49
39487;BME280;25173;50.430;18.926;2023-01-29T14:33:39;98788.94;;;4.19;49.80
39487;BME280;25173;50.430;18.926;2023-01-29T14:36:42;98787.75;;;4.09;49.96
39487;BME280;25173;50.430;18.926;2023-01-29T14:39:52;98786.50;;;4.11;50.10
39487;BME280;25173;50.430;18.926;2023-01-29T14:49:53;98791.09;;;4.04;49.96
39487;BME280;25173;50.430;18.926;2023-01-29T14:53:02;98789.06;;;4.00;49.98
39487;BME280;25173;50.430;18.926;2023-01-29T14:56:32;98800.66;;;4.00;50.01
39487;BME280;25173;50.430;18.926;2023-01-29T15:02:51;98806.88;;;4.01;50.27
39487;BME280;25173;50.430;18.926;2023-01-29T15:05:53;98791.75;;;4.00;50.16
39487;BME280;25173;50.430;18.926;2023-01-29T15:09:11;98784.06;;;4.03;49.71
39487;BME280;25173;50.430;18.926;2023-01-29T15:12:23;98790.16;;;3.92;49.87
39487;BME280;25173;50.430;18.926;2023-01-29T15:18:38;98783.97;;;3.85;49.99
39487;BME280;25173;50.430;18.926;2023-01-29T15:22:18;98782.78;;;3.74;49.83
39487;BME280;25173;50.430;18.926;2023-01-29T15:25:20;98779.66;;;3.71;50.25
39487;BME280;25173;50.430;18.926;2023-01-29T15:28:21;98784.22;;;3.77;50.43
39487;BME280;25173;50.430;18.926;2023-01-29T15:31:21;98771.78;;;3.76;50.24
39487;BME280;25173;50.430;18.926;2023-01-29T15:34:22;98778.38;;;3.80;50.19
39487;BME280;25173;50.430;18.926;2023-01-29T15:37:25;98779.25;;;3.74;50.11
39487;BME280;25173;50.430;18.926;2023-01-29T15:40:27;98759.56;;;3.73;50.24
39487;BME280;25173;50.430;18.926;2023-01-29T15:43:34;98745.28;;;3.73;50.35
39487;BME280;25173;50.430;18.926;2023-01-29T15:46:37;98742.56;;;3.73;50.64
39487;BME280;25173;50.430;18.926;2023-01-29T15:49:40;98739.84;;;3.79;50.34
39487;BME280;25173;50.430;18.926;2023-01-29T15:52:40;98754.59;;;3.77;50.39
39487;BME280;25173;50.430;18.926;2023-01-29T15:55:42;98761.06;;;3.69;50.20
39487;BME280;25173;50.430;18.926;2023-01-29T15:58:46;98757.78;;;3.61;50.40
39487;BME280;25173;50.430;18.926;2023-01-29T16:01:48;98756.13;;;3.60;50.71
39487;BME280;25173;50.430;18.926;2023-01-29T16:04:49;98739.50;;;3.69;50.85
39487;BME280;25173;50.430;18.926;2023-01-29T16:07:50;98737.59;;;3.76;50.67
39487;BME280;25173;50.430;18.926;2023-01-29T16:11:00;98736.88;;;3.87;50.67
39487;BME280;25173;50.430;18.926;2023-01-29T16:14:02;98733.31;;;3.94;50.43
39487;BME280;25173;50.430;18.926;2023-01-29T16:17:25;98735.19;;;4.00;50.50
39487;BME280;25173;50.430;18.926;2023-01-29T16:20:44;98724.41;;;4.00;50.40
39487;BME280;25173;50.430;18.926;2023-01-29T16:24:07;98728.50;;;4.02;50.49
39487;BME280;25173;50.430;18.926;2023-01-29T16:27:12;98723.13;;;4.02;50.52
39487;BME280;25173;50.430;18.926;2023-01-29T16:30:17;98717.31;;;4.05;50.52
39487;BME280;25173;50.430;18.926;2023-01-29T16:33:18;98727.31;;;3.98;50.59
39487;BME280;25173;50.430;18.926;2023-01-29T16:36:20;98727.72;;;3.95;50.62
39487;BME280;25173;50.430;18.926;2023-01-29T16:39:24;98731.47;;;3.94;50.65
39487;BME280;25173;50.430;18.926;2023-01-29T16:42:28;98729.47;;;3.83;50.87
39487;BME280;25173;50.430;18.926;2023-01-29T16:45:29;98724.47;;;3.86;50.73
39487;BME280;25173;50.430;18.926;2023-01-29T16:48:32;98728.81;;;3.87;50.89
39487;BME280;25173;50.430;18.926;2023-01-29T16:51:37;98722.75;;;3.99;50.89
39487;BME280;25173;50.430;18.926;2023-01-29T16:54:41;98732.63;;;4.05;50.45
39487;BME280;25173;50.430;18.926;2023-01-29T16:57:44;98727.09;;;4.00;50.65
39487;BME280;25173;50.430;18.926;2023-01-29T17:00:51;98736.84;;;3.94;50.71
39487;BME280;25173;50.430;18.926;2023-01-29T17:04:13;98725.03;;;3.95;51.03
39487;BME280;25173;50.430;18.926;2023-01-29T17:07:16;98726.25;;;3.99;51.07
39487;BME280;25173;50.430;18.926;2023-01-29T17:10:20;98725.38;;;4.05;50.92
39487;BME280;25173;50.430;18.926;2023-01-29T17:13:34;98721.81;;;4.11;51.07
39487;BME280;25173;50.430;18.926;2023-01-29T17:16:48;98715.09;;;4.20;50.73
39487;BME280;25173;50.430;18.926;2023-01-29T17:19:50;98704.91;;;4.22;50.80
39487;BME280;25173;50.430;18.926;2023-01-29T17:22:50;98706.41;;;4.18;50.62
39487;BME280;25173;50.430;18.926;2023-01-29T17:25:51;98704.88;;;4.04;50.67
39487;BME280;25173;50.430;18.926;2023-01-29T17:28:52;98705.75;;;3.98;50.65
39487;BME280;25173;50.430;18.926;2023-01-29T17:31:53;98691.31;;;3.86;50.66
39487;BME280;25173;50.430;18.926;2023-01-29T17:34:55;98693.00;;;3.80;50.94
39487;BME280;25173;50.430;18.926;2023-01-29T17:37:56;98682.22;;;3.80;51.22
39487;BME280;25173;50.430;18.926;2023-01-29T17:44:05;98688.03;;;3.84;50.99
39487;BME280;25173;50.430;18.926;2023-01-29T17:47:11;98689.28;;;3.81;51.11
39487;BME280;25173;50.430;18.926;2023-01-29T17:50:20;98689.94;;;3.77;50.97
39487;BME280;25173;50.430;18.926;2023-01-29T17:53:22;98681.03;;;3.76;51.29
39487;BME280;25173;50.430;18.926;2023-01-29T17:56:24;98690.16;;;3.75;51.31
39487;BME280;25173;50.430;18.926;2023-01-29T17:59:31;98679.78;;;3.72;51.47
39487;BME280;25173;50.430;18.926;2023-01-29T18:02:32;98685.22;;;3.66;51.59
39487;BME280;25173;50.430;18.926;2023-01-29T18:05:33;98676.53;;;3.64;51.73
39487;BME280;25173;50.430;18.926;2023-01-29T18:08:35;98681.09;;;3.63;51.93
39487;BME280;25173;50.430;18.926;2023-01-29T18:11:38;98693.75;;;3.63;52.20
39487;BME280;25173;50.430;18.926;2023-01-29T18:14:38;98679.06;;;3.59;52.42
39487;BME280;25173;50.430;18.926;2023-01-29T18:17:39;98679.50;;;3.56;52.74
39487;BME280;25173;50.430;18.926;2023-01-29T18:20:40;98675.00;;;3.43;52.96
39487;BME280;25173;50.430;18.926;2023-01-29T18:23:41;98678.34;;;3.38;53.33
39487;BME280;25173;50.430;18.926;2023-01-29T18:26:41;98668.84;;;3.36;53.35
39487;BME280;25173;50.430;18.926;2023-01-29T18:29:42;98663.06;;;3.32;53.46
39487;BME280;25173;50.430;18.926;2023-01-29T18:32:43;98670.91;;;3.34;53.75
39487;BME280;25173;50.430;18.926;2023-01-29T18:35:44;98661.84;;;3.28;53.91
39487;BME280;25173;50.430;18.926;2023-01-29T18:38:47;98665.19;;;3.24;53.85
39487;BME280;25173;50.430;18.926;2023-01-29T18:41:47;98679.28;;;3.12;54.21
39487;BME280;25173;50.430;18.926;2023-01-29T18:44:48;98659.44;;;3.07;54.26
39487;BME280;25173;50.430;18.926;2023-01-29T18:47:49;98663.81;;;3.08;54.65
39487;BME280;25173;50.430;18.926;2023-01-29T18:50:49;98662.56;;;3.10;54.65
39487;BME280;25173;50.430;18.926;2023-01-29T18:53:51;98653.31;;;2.93;55.45
39487;BME280;25173;50.430;18.926;2023-01-29T18:56:51;98656.09;;;2.73;56.22